createdAt,value
2019-05-03T00:00:26.834Z,0.00
2019-05-03T00:01:26.824Z,0.00
2019-05-03T00:02:26.817Z,0.00
2019-05-03T00:03:26.807Z,0.00
2019-05-03T00:04:26.802Z,0.00
2019-05-03T00:05:26.796Z,0.00
2019-05-03T00:06:26.791Z,0.00
2019-05-03T00:07:26.790Z,0.00
2019-05-03T00:08:26.779Z,0.00
2019-05-03T00:09:26.769Z,0.00
2019-05-03T00:10:26.764Z,0.00
2019-05-03T00:11:26.752Z,0.00
2019-05-03T00:12:26.745Z,0.00
2019-05-03T00:13:26.743Z,0.00
2019-05-03T00:14:26.737Z,0.00
2019-05-03T00:15:26.724Z,0.00
2019-05-03T00:16:26.717Z,0.00
2019-05-03T00:17:26.716Z,0.00
2019-05-03T00:18:26.708Z,0.00
2019-05-03T00:19:26.703Z,0.00
2019-05-03T00:20:26.700Z,0.00
2019-05-03T00:21:26.686Z,0.00
2019-05-03T00:22:26.680Z,0.00
2019-05-03T00:23:26.671Z,0.00
2019-05-03T00:24:26.669Z,0.00
2019-05-03T00:25:26.662Z,0.00
2019-05-03T00:26:26.656Z,0.00
2019-05-03T00:27:26.648Z,0.00
2019-05-03T00:28:26.680Z,0.00
2019-05-03T00:29:26.636Z,0.00
2019-05-03T00:30:26.622Z,0.00
2019-05-03T00:31:26.620Z,0.00
2019-05-03T00:32:26.613Z,0.00
2019-05-03T00:33:26.600Z,0.00
2019-05-03T00:34:26.595Z,0.00
2019-05-03T00:35:26.589Z,0.00
2019-05-03T00:36:26.584Z,0.00
2019-05-03T00:37:26.592Z,0.00
2019-05-03T00:38:26.573Z,0.00
2019-05-03T00:39:26.565Z,0.00
2019-05-03T00:40:26.564Z,0.00
2019-05-03T00:41:26.547Z,0.00
2019-05-03T00:42:26.541Z,0.00
2019-05-03T00:43:26.532Z,0.00
2019-05-03T00:44:26.528Z,0.00
2019-05-03T00:45:26.524Z,0.00
2019-05-03T00:46:26.517Z,0.00
2019-05-03T00:47:26.505Z,0.00
2019-05-03T00:48:26.502Z,0.00
2019-05-03T00:49:26.495Z,0.00
2019-05-03T00:50:26.490Z,0.00
2019-05-03T00:51:26.487Z,0.00
2019-05-03T00:52:26.476Z,0.00
2019-05-03T00:53:26.465Z,0.00
2019-05-03T00:54:26.459Z,0.00
2019-05-03T00:55:26.453Z,0.00
2019-05-03T00:56:26.444Z,0.00
2019-05-03T00:57:26.441Z,0.00
2019-05-03T00:58:26.434Z,0.00
2019-05-03T00:59:26.425Z,0.00
2019-05-03T01:00:26.419Z,0.00
2019-05-03T01:01:26.407Z,0.00
2019-05-03T01:02:26.464Z,0.00
2019-05-03T01:03:26.399Z,0.00
2019-05-03T01:04:26.391Z,0.00
2019-05-03T01:05:26.380Z,0.00
2019-05-03T01:06:26.373Z,0.00
2019-05-03T01:07:26.368Z,0.00
2019-05-03T01:08:26.361Z,0.00
2019-05-03T01:09:26.358Z,0.00
2019-05-03T01:10:26.352Z,0.00
2019-05-03T01:11:26.348Z,0.00
2019-05-03T01:12:26.335Z,0.00
2019-05-03T01:13:26.324Z,0.00
2019-05-03T01:14:26.318Z,0.00
2019-05-03T01:15:26.313Z,0.00
2019-05-03T01:16:26.310Z,0.00
2019-05-03T01:17:26.303Z,0.00
2019-05-03T01:18:26.295Z,0.00
2019-05-03T01:19:26.285Z,0.00
2019-05-03T01:20:26.279Z,0.00
2019-05-03T01:21:26.275Z,0.00
2019-05-03T01:22:26.270Z,0.00
2019-05-03T01:23:26.258Z,0.00
2019-05-03T01:24:26.253Z,0.00
2019-05-03T01:25:32.144Z,0.00
2019-05-03T01:26:26.232Z,0.00
2019-05-03T01:27:26.227Z,0.00
2019-05-03T01:28:26.218Z,0.00
2019-05-03T01:29:26.215Z,0.00
2019-05-03T01:30:26.209Z,0.00
2019-05-03T01:31:26.204Z,0.00
2019-05-03T01:32:26.197Z,0.00
2019-05-03T01:33:26.186Z,0.00
2019-05-03T01:34:26.185Z,0.00
2019-05-03T01:35:26.177Z,0.00
2019-05-03T01:36:26.168Z,0.00
2019-05-03T01:37:26.156Z,0.00
2019-05-03T01:38:26.150Z,0.00
2019-05-03T01:39:26.140Z,0.00
2019-05-03T01:40:26.134Z,0.00
2019-05-03T01:41:26.136Z,0.00
2019-05-03T01:42:26.123Z,0.00
2019-05-03T01:43:26.117Z,0.00
2019-05-03T01:44:26.108Z,0.00
2019-05-03T01:45:26.095Z,0.00
2019-05-03T01:46:26.088Z,0.00
2019-05-03T01:47:26.083Z,0.00
2019-05-03T01:48:26.079Z,0.00
2019-05-03T01:49:26.072Z,0.00
2019-05-03T01:50:26.067Z,0.00
2019-05-03T01:51:26.054Z,0.00
2019-05-03T01:52:26.047Z,0.00
2019-05-03T01:53:26.043Z,0.00
2019-05-03T01:54:26.037Z,0.00
2019-05-03T01:55:26.026Z,0.00
2019-05-03T01:56:26.019Z,0.00
2019-05-03T01:57:26.007Z,0.00
2019-05-03T01:58:26.001Z,0.00
2019-05-03T01:59:25.994Z,0.00
2019-05-03T02:00:25.986Z,0.00
2019-05-03T02:01:25.982Z,0.00
2019-05-03T02:02:25.988Z,0.00
2019-05-03T02:03:25.972Z,0.00
2019-05-03T02:04:25.963Z,0.00
2019-05-03T02:05:25.957Z,0.00
2019-05-03T02:06:25.944Z,0.00
2019-05-03T02:07:25.943Z,0.00
2019-05-03T02:08:25.934Z,0.00
2019-05-03T02:09:25.930Z,0.00
2019-05-03T02:10:25.918Z,0.00
2019-05-03T02:11:25.905Z,0.00
2019-05-03T02:12:25.898Z,0.00
2019-05-03T02:13:25.896Z,0.00
2019-05-03T02:14:25.888Z,0.00
2019-05-03T02:15:25.883Z,0.00
2019-05-03T02:16:25.877Z,0.00
2019-05-03T02:17:25.865Z,0.00
2019-05-03T02:18:25.858Z,0.00
2019-05-03T02:19:25.850Z,0.00
2019-05-03T02:20:25.841Z,0.00
2019-05-03T02:21:25.838Z,0.00
2019-05-03T02:22:25.830Z,0.00
2019-05-03T02:23:25.819Z,0.00
2019-05-03T02:24:25.812Z,0.00
2019-05-03T02:25:25.809Z,0.00
2019-05-03T02:26:25.803Z,0.00
2019-05-03T02:27:25.797Z,0.00
2019-05-03T02:28:25.790Z,0.00
2019-05-03T02:29:25.779Z,0.00
2019-05-03T02:30:25.773Z,0.00
2019-05-03T02:31:25.765Z,0.00
2019-05-03T02:32:25.758Z,0.00
2019-05-03T02:33:25.753Z,0.00
2019-05-03T02:34:25.747Z,0.00
2019-05-03T02:35:25.737Z,0.00
2019-05-03T02:36:25.730Z,0.00
2019-05-03T02:37:25.718Z,0.00
2019-05-03T02:38:25.712Z,0.00
2019-05-03T02:39:25.711Z,0.00
2019-05-03T02:40:25.704Z,0.00
2019-05-03T02:41:25.690Z,0.00
2019-05-03T02:42:26.541Z,0.00
2019-05-03T02:43:26.295Z,0.00
2019-05-03T02:44:26.612Z,0.00
2019-05-03T02:45:26.009Z,0.00
2019-05-03T02:46:25.691Z,0.00
2019-05-03T02:47:26.564Z,0.00
2019-05-03T02:48:25.758Z,0.00
2019-05-03T02:49:25.994Z,0.00
2019-05-03T02:50:26.157Z,0.00
2019-05-03T02:51:26.166Z,0.00
2019-05-03T02:52:25.692Z,0.00
2019-05-03T02:53:26.027Z,0.00
2019-05-03T02:54:27.023Z,0.00
2019-05-03T02:55:26.272Z,0.00
2019-05-03T02:56:26.233Z,0.00
2019-05-03T02:57:25.931Z,0.00
2019-05-03T02:58:25.605Z,0.00
2019-05-03T02:59:26.352Z,0.00
2019-05-03T03:00:25.681Z,0.00
2019-05-03T03:01:26.524Z,0.00
2019-05-03T03:02:26.390Z,0.00
2019-05-03T03:03:25.689Z,0.00
2019-05-03T03:04:26.134Z,0.00
2019-05-03T03:05:25.519Z,0.00
2019-05-03T03:06:26.676Z,0.00
2019-05-03T03:07:25.974Z,0.00
2019-05-03T03:08:25.496Z,0.00
2019-05-03T03:09:26.125Z,0.00
2019-05-03T03:10:26.424Z,0.00
2019-05-03T03:11:26.109Z,0.00
2019-05-03T03:12:25.857Z,0.00
2019-05-03T03:13:25.642Z,0.00
2019-05-03T03:14:25.875Z,0.00
2019-05-03T03:15:25.736Z,0.00
2019-05-03T03:16:25.436Z,0.00
2019-05-03T03:17:25.684Z,0.00
2019-05-03T03:18:25.689Z,0.00
2019-05-03T03:19:26.195Z,0.00
2019-05-03T03:20:25.556Z,0.00
2019-05-03T03:21:26.159Z,0.00
2019-05-03T03:22:26.023Z,0.00
2019-05-03T03:23:26.259Z,0.00
2019-05-03T03:24:25.947Z,0.00
2019-05-03T03:25:25.950Z,0.00
2019-05-03T03:26:37.623Z,0.00
2019-05-03T03:27:25.864Z,0.00
2019-05-03T03:28:25.488Z,0.00
2019-05-03T03:29:25.615Z,0.00
2019-05-03T03:30:29.300Z,0.00
2019-05-03T03:31:28.585Z,0.00
2019-05-03T03:32:29.322Z,0.00
2019-05-03T03:33:28.194Z,0.00
2019-05-03T03:34:27.951Z,0.00
2019-05-03T03:35:29.954Z,0.00
2019-05-03T03:36:44.725Z,0.00
2019-05-03T03:37:25.989Z,0.00
2019-05-03T03:38:26.139Z,0.00
2019-05-03T03:39:26.017Z,0.00
2019-05-03T03:40:25.577Z,0.00
2019-05-03T03:41:25.246Z,0.00
2019-05-03T03:42:25.332Z,0.00
2019-05-03T03:43:25.922Z,0.00
2019-05-03T03:44:25.760Z,0.00
2019-05-03T03:45:25.546Z,0.00
2019-05-03T03:46:25.382Z,0.00
2019-05-03T03:47:27.283Z,0.00
2019-05-03T03:48:26.584Z,0.00
2019-05-03T03:49:26.254Z,0.00
2019-05-03T03:50:25.974Z,0.00
2019-05-03T03:51:26.315Z,0.00
2019-05-03T03:52:25.599Z,0.00
2019-05-03T03:53:26.452Z,0.00
2019-05-03T03:54:26.062Z,0.00
2019-05-03T03:55:26.431Z,0.00
2019-05-03T03:56:25.542Z,5.63
2019-05-03T03:57:25.387Z,5.63
2019-05-03T03:58:26.978Z,5.63
2019-05-03T03:59:26.765Z,5.63
2019-05-03T04:00:25.778Z,5.63
2019-05-03T04:01:26.789Z,5.63
2019-05-03T04:02:26.539Z,5.63
2019-05-03T04:03:25.999Z,5.63
2019-05-03T04:04:25.953Z,5.63
2019-05-03T04:05:25.617Z,11.25
2019-05-03T04:06:26.908Z,11.25
2019-05-03T04:07:26.110Z,5.63
2019-05-03T04:08:25.282Z,5.63
2019-05-03T04:09:25.717Z,5.63
2019-05-03T04:10:26.156Z,5.63
2019-05-03T04:11:25.906Z,5.63
2019-05-03T04:12:26.460Z,5.63
2019-05-03T04:13:25.660Z,11.25
2019-05-03T04:14:25.462Z,11.25
2019-05-03T04:15:26.083Z,11.25
2019-05-03T04:16:25.901Z,16.88
2019-05-03T04:17:26.146Z,16.88
2019-05-03T04:18:25.566Z,16.88
2019-05-03T04:19:25.239Z,22.50
2019-05-03T04:20:25.697Z,22.50
2019-05-03T04:21:25.691Z,22.50
2019-05-03T04:22:25.537Z,22.50
2019-05-03T04:23:26.415Z,16.88
2019-05-03T04:24:25.872Z,11.25
2019-05-03T04:25:26.170Z,5.63
2019-05-03T04:26:29.600Z,5.63
2019-05-03T04:27:27.606Z,0.00
2019-05-03T04:28:25.566Z,0.00
2019-05-03T04:29:25.517Z,0.00
2019-05-03T04:30:25.691Z,5.63
2019-05-03T04:31:26.178Z,5.63
2019-05-03T04:32:28.811Z,5.63
2019-05-03T04:33:26.970Z,5.63
2019-05-03T04:34:26.366Z,5.63
2019-05-03T04:35:26.661Z,11.25
2019-05-03T04:36:26.176Z,11.25
2019-05-03T04:37:26.589Z,11.25
2019-05-03T04:38:25.741Z,16.88
2019-05-03T04:39:25.611Z,22.50
2019-05-03T04:40:26.106Z,22.50
2019-05-03T04:41:26.844Z,28.13
2019-05-03T04:42:25.542Z,33.75
2019-05-03T04:43:26.478Z,39.38
2019-05-03T04:44:26.005Z,39.38
2019-05-03T04:45:25.517Z,39.38
2019-05-03T04:46:25.987Z,39.38
2019-05-03T04:47:26.446Z,33.75
2019-05-03T04:48:25.329Z,39.38
2019-05-03T04:49:26.228Z,33.75
2019-05-03T04:50:25.472Z,33.75
2019-05-03T04:51:25.843Z,39.38
2019-05-03T04:52:25.953Z,45.00
2019-05-03T04:53:25.975Z,56.25
2019-05-03T04:54:25.389Z,67.50
2019-05-03T04:55:26.724Z,84.38
2019-05-03T04:56:26.047Z,84.38
2019-05-03T04:57:36.713Z,78.75
2019-05-03T04:58:25.847Z,78.75
2019-05-03T04:59:25.495Z,61.88
2019-05-03T05:00:25.627Z,50.63
2019-05-03T05:01:26.104Z,56.25
2019-05-03T05:02:26.308Z,67.50
2019-05-03T05:03:26.583Z,73.13
2019-05-03T05:04:25.414Z,67.50
2019-05-03T05:05:26.152Z,73.13
2019-05-03T05:06:25.815Z,78.75
2019-05-03T05:07:26.060Z,84.38
2019-05-03T05:08:25.318Z,90.00
2019-05-03T05:09:25.885Z,95.63
2019-05-03T05:10:25.997Z,101.25
2019-05-03T05:11:26.356Z,106.88
2019-05-03T05:12:25.155Z,106.88
2019-05-03T05:13:25.110Z,106.88
2019-05-03T05:14:25.873Z,101.25
2019-05-03T05:15:26.550Z,95.63
2019-05-03T05:16:25.174Z,90.00
2019-05-03T05:17:26.312Z,84.38
2019-05-03T05:18:26.380Z,78.75
2019-05-03T05:19:25.406Z,73.13
2019-05-03T05:20:24.854Z,78.75
2019-05-03T05:21:25.267Z,90.00
2019-05-03T05:22:24.735Z,95.63
2019-05-03T05:23:25.096Z,95.63
2019-05-03T05:24:25.632Z,101.25
2019-05-03T05:25:25.118Z,118.13
2019-05-03T05:26:24.836Z,129.38
2019-05-03T05:27:25.661Z,146.25
2019-05-03T05:28:24.987Z,157.50
2019-05-03T05:29:25.338Z,151.88
2019-05-03T05:30:25.233Z,146.25
2019-05-03T05:31:25.461Z,151.88
2019-05-03T05:32:24.736Z,140.63
2019-05-03T05:33:25.254Z,140.63
2019-05-03T05:34:24.596Z,157.50
2019-05-03T05:35:24.843Z,163.13
2019-05-03T05:36:24.457Z,157.50
2019-05-03T05:37:25.039Z,163.13
2019-05-03T05:38:25.597Z,174.38
2019-05-03T05:39:24.564Z,180.00
2019-05-03T05:40:24.618Z,180.00
2019-05-03T05:41:24.540Z,180.00
2019-05-03T05:42:25.077Z,185.63
2019-05-03T05:43:25.534Z,191.25
2019-05-03T05:44:24.831Z,191.25
2019-05-03T05:45:24.675Z,230.63
2019-05-03T05:46:24.907Z,208.13
2019-05-03T05:47:25.405Z,208.13
2019-05-03T05:48:24.668Z,225.00
2019-05-03T05:49:25.978Z,241.88
2019-05-03T05:50:25.386Z,264.38
2019-05-03T05:51:24.844Z,292.50
2019-05-03T05:52:24.595Z,309.38
2019-05-03T05:53:25.384Z,315.00
2019-05-03T05:54:24.588Z,331.88
2019-05-03T05:55:25.290Z,348.75
2019-05-03T05:56:25.097Z,348.75
2019-05-03T05:57:25.601Z,337.50
2019-05-03T05:58:25.627Z,337.50
2019-05-03T05:59:24.826Z,360.00
2019-05-03T06:00:25.671Z,388.13
2019-05-03T06:01:25.011Z,427.50
2019-05-03T06:02:25.369Z,511.88
2019-05-03T06:03:25.283Z,500.63
2019-05-03T06:04:24.593Z,511.88
2019-05-03T06:05:25.179Z,455.63
2019-05-03T06:06:24.487Z,472.50
2019-05-03T06:07:24.848Z,511.88
2019-05-03T06:08:25.111Z,405.00
2019-05-03T06:09:25.633Z,388.13
2019-05-03T06:10:24.883Z,382.50
2019-05-03T06:11:25.824Z,388.13
2019-05-03T06:12:25.067Z,365.63
2019-05-03T06:13:24.078Z,354.38
2019-05-03T06:14:24.508Z,337.50
2019-05-03T06:15:25.015Z,320.63
2019-05-03T06:16:24.516Z,320.63
2019-05-03T06:17:24.521Z,365.63
2019-05-03T06:18:25.057Z,438.75
2019-05-03T06:19:25.302Z,455.63
2019-05-03T06:20:24.577Z,455.63
2019-05-03T06:21:25.097Z,534.38
2019-05-03T06:22:25.699Z,630.00
2019-05-03T06:23:24.799Z,686.25
2019-05-03T06:24:24.922Z,1552.50
2019-05-03T06:25:26.572Z,1676.25
2019-05-03T06:26:25.302Z,1687.50
2019-05-03T06:27:24.435Z,1670.63
2019-05-03T06:28:25.179Z,1659.38
2019-05-03T06:29:24.794Z,1704.38
2019-05-03T06:30:24.837Z,641.25
2019-05-03T06:31:25.288Z,1659.38
2019-05-03T06:32:25.401Z,1743.75
2019-05-03T06:33:24.472Z,1760.63
2019-05-03T06:34:25.191Z,1766.25
2019-05-03T06:35:24.421Z,1783.13
2019-05-03T06:36:24.392Z,1788.75
2019-05-03T06:37:25.116Z,1783.13
2019-05-03T06:38:24.443Z,1783.13
2019-05-03T06:39:24.894Z,1805.63
2019-05-03T06:40:25.276Z,1805.63
2019-05-03T06:41:25.052Z,1693.13
2019-05-03T06:42:25.493Z,1665.00
2019-05-03T06:43:24.463Z,1698.75
2019-05-03T06:44:28.262Z,1839.38
2019-05-03T06:45:25.118Z,1935.00
2019-05-03T06:46:30.253Z,1935.00
2019-05-03T06:47:25.337Z,1226.25
2019-05-03T06:48:28.019Z,2137.50
2019-05-03T06:49:25.504Z,2070.00
2019-05-03T06:50:25.230Z,2030.63
2019-05-03T06:51:24.842Z,1816.88
2019-05-03T06:52:25.488Z,1586.25
2019-05-03T06:53:25.402Z,1653.75
2019-05-03T06:54:28.316Z,2081.25
2019-05-03T06:55:24.784Z,1732.50
2019-05-03T06:56:28.900Z,1096.88
2019-05-03T06:57:25.368Z,2165.63
2019-05-03T06:58:31.251Z,1980.00
2019-05-03T06:59:24.996Z,1147.50
2019-05-03T07:00:24.801Z,1614.38
2019-05-03T07:01:25.308Z,2233.13
2019-05-03T07:02:25.141Z,1074.38
2019-05-03T07:03:25.152Z,826.88
2019-05-03T07:04:24.595Z,950.63
2019-05-03T07:05:25.104Z,2075.63
2019-05-03T07:06:36.726Z,2199.38
2019-05-03T07:07:27.778Z,2205.00
2019-05-03T07:08:25.365Z,1839.38
2019-05-03T07:09:25.035Z,1035.00
2019-05-03T07:10:24.938Z,1935.00
2019-05-03T07:11:24.732Z,933.75
2019-05-03T07:12:25.019Z,950.63
2019-05-03T07:13:25.454Z,1102.50
2019-05-03T07:14:24.678Z,2351.25
2019-05-03T07:15:25.173Z,1428.75
2019-05-03T07:16:25.296Z,1192.50
2019-05-03T07:17:24.813Z,961.88
2019-05-03T07:18:24.768Z,843.75
2019-05-03T07:19:24.988Z,1333.13
2019-05-03T07:20:25.461Z,984.38
2019-05-03T07:21:24.734Z,1153.13
2019-05-03T07:22:24.493Z,2008.13
2019-05-03T07:23:24.573Z,1023.75
2019-05-03T07:24:24.874Z,866.25
2019-05-03T07:25:25.594Z,703.13
2019-05-03T07:26:25.448Z,759.38
2019-05-03T07:27:24.760Z,2047.50
2019-05-03T07:28:24.812Z,2081.25
2019-05-03T07:29:25.514Z,1366.88
2019-05-03T07:30:24.783Z,1788.75
2019-05-03T07:31:25.482Z,1771.88
2019-05-03T07:32:24.698Z,1642.50
2019-05-03T07:33:25.422Z,1653.75
2019-05-03T07:34:24.813Z,1721.25
2019-05-03T07:35:25.188Z,1755.00
2019-05-03T07:36:28.094Z,1766.25
2019-05-03T07:37:24.651Z,1738.13
2019-05-03T07:38:24.848Z,1743.75
2019-05-03T07:39:24.629Z,1805.63
2019-05-03T07:40:25.298Z,1867.50
2019-05-03T07:41:26.548Z,1912.50
2019-05-03T07:42:25.636Z,1940.63
2019-05-03T07:43:24.576Z,2002.50
2019-05-03T07:44:25.552Z,2109.38
2019-05-03T07:45:25.394Z,2199.38
2019-05-03T07:46:24.744Z,2306.25
2019-05-03T07:47:24.768Z,2379.38
2019-05-03T07:48:25.516Z,2480.63
2019-05-03T07:49:24.971Z,2728.13
2019-05-03T07:50:25.850Z,3088.13
2019-05-03T07:51:24.894Z,2750.63
2019-05-03T07:52:25.865Z,3746.25
2019-05-03T07:53:25.259Z,3594.38
2019-05-03T07:54:24.889Z,3285.00
2019-05-03T07:55:24.980Z,3217.50
2019-05-03T07:56:25.469Z,3217.50
2019-05-03T07:57:25.443Z,3251.25
2019-05-03T07:58:25.307Z,3425.63
2019-05-03T07:59:25.065Z,3735.00
2019-05-03T08:00:25.386Z,3791.25
2019-05-03T08:01:25.195Z,1794.38
2019-05-03T08:02:27.265Z,956.25
2019-05-03T08:03:24.470Z,804.38
2019-05-03T08:04:25.558Z,3740.63
2019-05-03T08:05:24.737Z,4511.25
2019-05-03T08:06:24.802Z,4376.25
2019-05-03T08:07:25.804Z,4646.25
2019-05-03T08:08:25.078Z,4820.63
2019-05-03T08:09:24.681Z,4685.63
2019-05-03T08:10:25.611Z,4050.00
2019-05-03T08:11:24.906Z,2700.00
2019-05-03T08:12:24.773Z,770.63
2019-05-03T08:13:25.327Z,5428.13
2019-05-03T08:14:25.210Z,686.25
2019-05-03T08:15:24.655Z,5130.00
2019-05-03T08:16:25.202Z,4950.00
2019-05-03T08:17:25.551Z,5248.13
2019-05-03T08:18:25.749Z,5011.88
2019-05-03T08:19:26.988Z,4595.63
2019-05-03T08:20:24.903Z,4978.13
2019-05-03T08:21:25.201Z,4657.50
2019-05-03T08:22:25.570Z,4882.50
2019-05-03T08:23:29.954Z,2041.88
2019-05-03T08:24:25.317Z,4168.13
2019-05-03T08:25:24.983Z,1423.13
2019-05-03T08:26:25.725Z,1181.25
2019-05-03T08:27:25.138Z,939.38
2019-05-03T08:28:24.737Z,1996.88
2019-05-03T08:29:24.954Z,5034.38
2019-05-03T08:30:25.051Z,4719.38
2019-05-03T08:31:26.483Z,658.13
2019-05-03T08:32:24.661Z,438.75
2019-05-03T08:33:25.016Z,416.25
2019-05-03T08:34:25.750Z,483.75
2019-05-03T08:35:24.648Z,1012.50
2019-05-03T08:36:24.889Z,804.38
2019-05-03T08:37:24.667Z,4162.50
2019-05-03T08:38:25.782Z,4213.13
2019-05-03T08:39:25.344Z,4455.00
2019-05-03T08:40:24.721Z,4381.88
2019-05-03T08:41:24.798Z,1243.13
2019-05-03T08:42:25.374Z,945.00
2019-05-03T08:43:25.511Z,4151.25
2019-05-03T08:44:25.110Z,3481.88
2019-05-03T08:45:25.607Z,3802.50
2019-05-03T08:46:25.309Z,3943.13
2019-05-03T08:47:24.930Z,3791.25
2019-05-03T08:48:25.102Z,4033.13
2019-05-03T08:49:25.499Z,4072.50
2019-05-03T08:50:25.651Z,4005.00
2019-05-03T08:51:25.135Z,3892.50
2019-05-03T08:52:24.984Z,4106.25
2019-05-03T08:53:25.632Z,4168.13
2019-05-03T08:54:25.529Z,3841.88
2019-05-03T08:55:25.089Z,3858.75
2019-05-03T08:56:24.822Z,4117.50
2019-05-03T08:57:25.407Z,3757.50
2019-05-03T08:58:25.582Z,3543.75
2019-05-03T08:59:29.694Z,4370.63
2019-05-03T09:00:25.034Z,4455.00
2019-05-03T09:01:25.296Z,4426.88
2019-05-03T09:02:25.865Z,3791.25
2019-05-03T09:03:25.065Z,4033.13
2019-05-03T09:04:35.994Z,4348.13
2019-05-03T09:05:25.174Z,4207.50
2019-05-03T09:06:24.953Z,1603.13
2019-05-03T09:07:25.459Z,1485.00
2019-05-03T09:08:25.041Z,1383.75
2019-05-03T09:09:25.516Z,1378.13
2019-05-03T09:10:25.059Z,1164.38
2019-05-03T09:11:31.800Z,1575.00
2019-05-03T09:12:25.324Z,1625.63
2019-05-03T09:13:25.260Z,2565.00
2019-05-03T09:14:38.495Z,2778.75
2019-05-03T09:15:25.060Z,4820.63
2019-05-03T09:16:25.271Z,6058.13
2019-05-03T09:17:25.090Z,5124.38
2019-05-03T09:18:25.837Z,2846.25
2019-05-03T09:19:25.395Z,1046.25
2019-05-03T09:20:25.157Z,753.75
2019-05-03T09:21:25.624Z,635.63
2019-05-03T09:22:25.629Z,540.00
2019-05-03T09:23:26.043Z,511.88
2019-05-03T09:24:25.168Z,534.38
2019-05-03T09:25:25.172Z,478.13
2019-05-03T09:26:29.262Z,461.25
2019-05-03T09:27:25.254Z,450.00
2019-05-03T09:28:28.812Z,472.50
2019-05-03T09:29:25.560Z,472.50
2019-05-03T09:30:25.253Z,455.63
2019-05-03T09:31:25.234Z,405.00
2019-05-03T09:32:25.656Z,360.00
2019-05-03T09:33:25.244Z,320.63
2019-05-03T09:34:25.746Z,303.75
2019-05-03T09:35:30.543Z,331.88
2019-05-03T09:36:25.584Z,337.50
2019-05-03T09:37:25.270Z,337.50
2019-05-03T09:38:25.728Z,326.25
2019-05-03T09:39:25.278Z,309.38
2019-05-03T09:40:25.285Z,281.25
2019-05-03T09:41:25.791Z,253.13
2019-05-03T09:42:25.305Z,253.13
2019-05-03T09:43:25.304Z,292.50
2019-05-03T09:44:25.306Z,343.13
2019-05-03T09:45:25.315Z,433.13
2019-05-03T09:46:26.489Z,551.25
2019-05-03T09:47:25.408Z,669.38
2019-05-03T09:48:25.644Z,928.13
2019-05-03T09:49:25.484Z,4033.13
2019-05-03T09:50:25.324Z,2610.00
2019-05-03T09:51:25.551Z,4477.50
2019-05-03T09:52:25.328Z,1440.00
2019-05-03T09:53:25.665Z,2160.00
2019-05-03T09:54:25.596Z,4021.88
2019-05-03T09:55:25.461Z,1321.88
2019-05-03T09:56:25.924Z,2193.75
2019-05-03T09:57:25.348Z,1085.63
2019-05-03T09:58:26.382Z,1350.00
2019-05-03T09:59:25.558Z,1276.88
2019-05-03T10:00:25.353Z,2098.13
2019-05-03T10:01:25.615Z,1035.00
2019-05-03T10:02:25.371Z,798.75
2019-05-03T10:03:25.369Z,658.13
2019-05-03T10:04:25.616Z,596.25
2019-05-03T10:05:25.684Z,540.00
2019-05-03T10:06:25.375Z,585.00
2019-05-03T10:07:25.919Z,708.75
2019-05-03T10:08:25.605Z,2227.50
2019-05-03T10:09:26.350Z,2266.88
2019-05-03T10:10:25.388Z,2401.88
2019-05-03T10:11:25.528Z,2306.25
2019-05-03T10:12:25.708Z,1890.00
2019-05-03T10:13:27.150Z,2373.75
2019-05-03T10:14:25.407Z,2385.00
2019-05-03T10:15:26.059Z,2289.38
2019-05-03T10:16:25.416Z,2053.13
2019-05-03T10:17:25.416Z,2086.88
2019-05-03T10:18:25.659Z,2368.13
2019-05-03T10:19:37.112Z,2373.75
2019-05-03T10:20:25.426Z,2289.38
2019-05-03T10:21:25.824Z,2120.63
2019-05-03T10:22:25.441Z,2221.88
2019-05-03T10:23:25.440Z,2182.50
2019-05-03T10:24:25.448Z,2435.63
2019-05-03T10:25:25.456Z,2525.63
2019-05-03T10:26:25.461Z,3279.38
2019-05-03T10:27:25.471Z,3645.00
2019-05-03T10:28:25.477Z,3802.50
2019-05-03T10:29:25.478Z,3943.13
2019-05-03T10:30:25.485Z,4156.88
2019-05-03T10:31:25.494Z,4246.88
2019-05-03T10:32:25.500Z,3735.00
2019-05-03T10:33:26.175Z,1395.00
2019-05-03T10:34:25.520Z,1108.13
2019-05-03T10:35:25.527Z,990.00
2019-05-03T10:36:25.536Z,933.75
2019-05-03T10:37:25.539Z,832.50
2019-05-03T10:38:25.549Z,731.25
2019-05-03T10:39:26.337Z,663.75
2019-05-03T10:40:25.569Z,618.75
2019-05-03T10:41:25.574Z,590.63
2019-05-03T10:42:25.580Z,585.00
2019-05-03T10:43:25.590Z,579.38
2019-05-03T10:44:25.596Z,585.00
2019-05-03T10:45:27.951Z,573.75
2019-05-03T10:46:25.616Z,618.75
2019-05-03T10:47:25.635Z,793.13
2019-05-03T10:48:25.624Z,573.75
2019-05-03T10:49:25.625Z,517.50
2019-05-03T10:50:25.630Z,540.00
2019-05-03T10:51:25.638Z,534.38
2019-05-03T10:52:25.851Z,905.63
2019-05-03T10:53:25.651Z,635.63
2019-05-03T10:54:25.656Z,663.75
2019-05-03T10:55:25.662Z,680.63
2019-05-03T10:56:26.811Z,781.88
2019-05-03T10:57:25.671Z,990.00
2019-05-03T10:58:25.675Z,798.75
2019-05-03T10:59:25.675Z,967.50
2019-05-03T11:00:48.361Z,1575.00
2019-05-03T11:01:25.678Z,3358.13
2019-05-03T11:02:25.681Z,5242.50
2019-05-03T11:03:25.684Z,2919.38
2019-05-03T11:04:25.692Z,1248.75
2019-05-03T11:05:25.696Z,1445.63
2019-05-03T11:06:25.701Z,4606.88
2019-05-03T11:07:25.839Z,945.00
2019-05-03T11:08:25.717Z,1597.50
2019-05-03T11:09:26.082Z,3408.75
2019-05-03T11:10:25.713Z,3071.25
2019-05-03T11:11:25.970Z,2975.63
2019-05-03T11:12:25.726Z,995.63
2019-05-03T11:13:26.437Z,1456.88
2019-05-03T11:14:25.729Z,1091.25
2019-05-03T11:15:26.007Z,888.75
2019-05-03T11:16:25.734Z,860.63
2019-05-03T11:17:25.780Z,1035.00
2019-05-03T11:18:25.746Z,3937.50
2019-05-03T11:19:25.753Z,1130.63
2019-05-03T11:20:29.083Z,883.13
2019-05-03T11:21:28.884Z,843.75
2019-05-03T11:22:25.758Z,995.63
2019-05-03T11:23:25.763Z,916.88
2019-05-03T11:24:27.544Z,945.00
2019-05-03T11:25:25.773Z,928.13
2019-05-03T11:26:25.777Z,888.75
2019-05-03T11:27:25.777Z,849.38
2019-05-03T11:28:25.780Z,832.50
2019-05-03T11:29:25.786Z,860.63
2019-05-03T11:30:25.790Z,855.00
2019-05-03T11:31:25.790Z,900.00
2019-05-03T11:32:25.794Z,888.75
2019-05-03T11:33:25.798Z,821.25
2019-05-03T11:34:25.794Z,826.88
2019-05-03T11:35:25.806Z,843.75
2019-05-03T11:36:25.800Z,821.25
2019-05-03T11:37:25.808Z,810.00
2019-05-03T11:38:25.809Z,911.25
2019-05-03T11:39:25.815Z,967.50
2019-05-03T11:40:25.818Z,1023.75
2019-05-03T11:41:32.169Z,1006.88
2019-05-03T11:42:25.820Z,978.75
2019-05-03T11:43:25.823Z,956.25
2019-05-03T11:44:25.826Z,984.38
2019-05-03T11:45:25.825Z,804.38
2019-05-03T11:46:25.826Z,624.38
2019-05-03T11:47:27.725Z,556.88
2019-05-03T11:48:25.827Z,500.63
2019-05-03T11:49:25.833Z,466.88
2019-05-03T11:50:25.834Z,433.13
2019-05-03T11:51:25.835Z,455.63
2019-05-03T11:52:25.961Z,534.38
2019-05-03T11:53:25.835Z,562.50
2019-05-03T11:54:25.836Z,618.75
2019-05-03T11:55:26.859Z,607.50
2019-05-03T11:56:25.843Z,562.50
2019-05-03T11:57:26.352Z,523.13
2019-05-03T11:58:27.318Z,511.88
2019-05-03T11:59:26.591Z,646.88
2019-05-03T12:00:26.816Z,731.25
2019-05-03T12:01:25.889Z,765.00
2019-05-03T12:02:25.851Z,686.25
2019-05-03T12:03:25.850Z,669.38
2019-05-03T12:04:25.852Z,658.13
2019-05-03T12:05:25.854Z,720.00
2019-05-03T12:06:25.846Z,781.88
2019-05-03T12:07:38.545Z,798.75
2019-05-03T12:08:25.848Z,720.00
2019-05-03T12:09:25.865Z,703.13
2019-05-03T12:10:51.001Z,686.25
2019-05-03T12:11:25.857Z,658.13
2019-05-03T12:12:25.853Z,579.38
2019-05-03T12:13:25.851Z,511.88
2019-05-03T12:14:25.859Z,483.75
2019-05-03T12:15:25.854Z,495.00
2019-05-03T12:17:06.844Z,590.63
2019-05-03T12:17:29.009Z,641.25
2019-05-03T12:18:26.398Z,703.13
2019-05-03T12:19:30.817Z,753.75
2019-05-03T12:20:28.715Z,855.00
2019-05-03T12:21:27.799Z,950.63
2019-05-03T12:22:26.400Z,961.88
2019-05-03T12:23:26.632Z,894.38
2019-05-03T12:24:26.961Z,866.25
2019-05-03T12:25:26.588Z,888.75
2019-05-03T12:26:39.912Z,900.00
2019-05-03T12:27:25.853Z,911.25
2019-05-03T12:28:25.871Z,967.50
2019-05-03T12:29:25.856Z,939.38
2019-05-03T12:30:27.764Z,838.13
2019-05-03T12:31:36.613Z,838.13
2019-05-03T12:32:25.856Z,849.38
2019-05-03T12:33:26.225Z,866.25
2019-05-03T12:34:25.861Z,838.13
2019-05-03T12:35:25.859Z,810.00
2019-05-03T12:36:25.857Z,748.13
2019-05-03T12:37:25.855Z,832.50
2019-05-03T12:38:25.857Z,815.63
2019-05-03T12:39:30.020Z,680.63
2019-05-03T12:40:25.856Z,613.13